createdAt,value
2019-04-04T00:04:00.064Z,99634.21
2019-04-04T00:06:40.804Z,99634.21
2019-04-04T00:09:21.680Z,99634.52
2019-04-04T00:11:51.135Z,99648.80
2019-04-04T00:14:20.500Z,99651.58
2019-04-04T00:16:50.500Z,99666.51
2019-04-04T00:19:21.746Z,99676.93
2019-04-04T00:21:51.662Z,99665.95
2019-04-04T00:24:21.335Z,99668.04
2019-04-04T00:26:50.680Z,99665.86
2019-04-04T00:29:20.323Z,99673.04
2019-04-04T00:31:50.293Z,99668.19
2019-04-04T00:37:18.732Z,99648.91
2019-04-04T00:39:48.397Z,99632.34
2019-04-04T00:42:19.370Z,99626.73
2019-04-04T00:44:48.736Z,99607.67
2019-04-04T00:47:18.349Z,99581.94
2019-04-04T00:49:47.988Z,99550.95
2019-04-04T00:52:30.196Z,99555.92
2019-04-04T00:54:59.570Z,99555.92
2019-04-04T00:57:30.094Z,99566.90
2019-04-04T00:59:59.865Z,99577.18
2019-04-04T01:02:48.548Z,99574.31
2019-04-04T01:05:18.497Z,99565.94
2019-04-04T01:07:48.475Z,99558.28
2019-04-04T01:10:19.065Z,99547.34
2019-04-04T01:13:08.297Z,99535.78
2019-04-04T01:15:37.654Z,99541.47
2019-04-04T01:18:07.315Z,99531.40
2019-04-04T01:20:36.662Z,99530.31
2019-04-04T01:23:06.312Z,99530.23
2019-04-04T01:25:35.661Z,99510.27
2019-04-04T01:28:08.244Z,99506.53
2019-04-04T01:31:02.798Z,99501.42
2019-04-04T01:33:32.398Z,99506.56
2019-04-04T01:36:24.916Z,99533.50
2019-04-04T01:38:58.073Z,99533.50
2019-04-04T01:41:37.949Z,99544.37
2019-04-04T01:44:11.035Z,99539.91
2019-04-04T01:46:58.002Z,99533.70
2019-04-04T01:49:27.410Z,99521.81
2019-04-04T01:51:57.732Z,99527.41
2019-04-04T01:54:33.523Z,99536.45
2019-04-04T01:57:02.875Z,99531.47
2019-04-04T01:59:32.582Z,99531.62
2019-04-04T02:02:02.706Z,99537.36
2019-04-04T02:04:51.459Z,99534.31
2019-04-04T02:07:20.825Z,99538.80
2019-04-04T02:13:21.894Z,99540.27
2019-04-04T02:18:54.393Z,99543.42
2019-04-04T02:21:49.620Z,99548.68
2019-04-04T02:24:19.044Z,99542.97
2019-04-04T02:26:48.846Z,99539.33
2019-04-04T02:29:18.501Z,99531.57
2019-04-04T02:32:07.112Z,99528.30
2019-04-04T02:34:38.532Z,99520.01
2019-04-04T02:37:20.835Z,99521.02
2019-04-04T02:39:55.542Z,99525.62
2019-04-04T02:45:13.569Z,99524.89
2019-04-04T02:47:42.917Z,99525.63
2019-04-04T02:50:52.682Z,99527.95
2019-04-04T02:53:22.028Z,99535.00
2019-04-04T02:55:51.743Z,99546.70
2019-04-04T02:58:21.376Z,99546.80
2019-04-04T03:00:50.861Z,99526.75
2019-04-04T03:03:20.201Z,99518.13
2019-04-04T03:05:51.950Z,99524.20
2019-04-04T03:08:40.567Z,99529.19
2019-04-04T03:14:05.168Z,99514.48
2019-04-04T03:16:34.917Z,99500.38
2019-04-04T03:19:04.887Z,99499.64
2019-04-04T03:21:55.936Z,99502.58
2019-04-04T03:24:45.141Z,99514.48
2019-04-04T03:27:25.732Z,99520.46
2019-04-04T03:30:01.077Z,99518.39
2019-04-04T03:32:31.049Z,99518.28
2019-04-04T03:35:00.846Z,99513.05
2019-04-04T03:37:30.179Z,99510.25
2019-04-04T03:43:16.103Z,99504.66
2019-04-04T03:46:05.079Z,99512.31
2019-04-04T03:48:49.898Z,99520.92
2019-04-04T03:51:17.871Z,99521.28
2019-04-04T03:56:25.695Z,99539.39
2019-04-04T03:59:35.071Z,99560.77
2019-04-04T04:02:04.746Z,99559.93
2019-04-04T04:04:34.096Z,99547.54
2019-04-04T04:07:03.830Z,99556.76
2019-04-04T04:09:33.209Z,99554.95
2019-04-04T04:12:02.819Z,99545.23
2019-04-04T04:14:33.940Z,99552.88
2019-04-04T04:17:03.338Z,99559.43
2019-04-04T04:19:32.829Z,99565.98
2019-04-04T04:22:21.542Z,99553.72
2019-04-04T04:24:50.912Z,99553.72
2019-04-04T04:27:20.266Z,99543.53
2019-04-04T04:29:51.535Z,99540.73
2019-04-04T04:32:22.655Z,99531.38
2019-04-04T04:35:11.406Z,99535.88
2019-04-04T04:37:41.041Z,99535.88
2019-04-04T04:40:50.725Z,99539.89
2019-04-04T04:43:20.076Z,99525.66
2019-04-04T04:45:51.055Z,99527.37
2019-04-04T04:51:43.237Z,99520.92
2019-04-04T04:54:22.843Z,99506.97
2019-04-04T04:56:57.576Z,99503.83
2019-04-04T04:59:26.994Z,99510.51
2019-04-04T05:01:56.448Z,99511.84
2019-04-04T05:04:27.972Z,99521.20
2019-04-04T05:07:07.433Z,99522.77
2019-04-04T05:09:44.461Z,99533.92
2019-04-04T05:12:22.984Z,99536.72
2019-04-04T05:14:52.674Z,99540.27
2019-04-04T05:17:22.138Z,99542.06
2019-04-04T05:19:52.511Z,99536.25
2019-04-04T05:22:22.048Z,99529.81
2019-04-04T05:25:06.826Z,99521.20
2019-04-04T05:27:31.979Z,99526.41
2019-04-04T05:30:01.329Z,99521.44
2019-04-04T05:32:53.128Z,99516.45
2019-04-04T05:35:40.256Z,99501.62
2019-04-04T05:38:12.236Z,99489.84
2019-04-04T05:41:00.095Z,99489.24
2019-04-04T05:43:29.733Z,99486.94
2019-04-04T05:45:59.276Z,99486.67
2019-04-04T05:48:29.616Z,99480.96
2019-04-04T05:51:19.067Z,99466.16
2019-04-04T05:53:48.431Z,99441.73
2019-04-04T05:56:17.996Z,99453.26
2019-04-04T05:58:47.537Z,99472.70
2019-04-04T06:01:36.456Z,99480.49
2019-04-04T06:04:06.144Z,99467.23
2019-04-04T06:06:35.472Z,99468.09
2019-04-04T06:09:46.870Z,99490.58
2019-04-04T06:12:22.984Z,99494.95
2019-04-04T06:15:43.104Z,99497.37
2019-04-04T06:18:12.469Z,99507.59
2019-04-04T06:20:42.127Z,99537.67
2019-04-04T06:23:11.502Z,99531.99
2019-04-04T06:25:42.469Z,99536.09
2019-04-04T06:28:12.690Z,99545.69
2019-04-04T06:31:02.348Z,99542.79
2019-04-04T06:33:33.071Z,99540.36
2019-04-04T06:36:22.150Z,99541.84
2019-04-04T06:38:52.226Z,99539.41
2019-04-04T06:41:41.670Z,99542.91
2019-04-04T06:44:13.027Z,99542.55
2019-04-04T06:47:02.055Z,99541.72
2019-04-04T06:49:38.200Z,99551.19
2019-04-04T06:52:19.369Z,99550.36
2019-04-04T06:54:48.665Z,99557.52
2019-04-04T06:57:18.267Z,99560.33
2019-04-04T06:59:47.622Z,99565.65
2019-04-04T07:02:17.254Z,99561.27
2019-04-04T07:04:47.593Z,99568.09
2019-04-04T07:07:17.284Z,99555.46
2019-04-04T07:09:50.354Z,99539.66
2019-04-04T07:13:20.953Z,99532.93
2019-04-04T07:15:46.937Z,99537.67
2019-04-04T07:18:20.698Z,99541.31
2019-04-04T07:20:50.242Z,99538.73
2019-04-04T07:23:19.934Z,99554.54
2019-04-04T07:25:49.829Z,99571.93
2019-04-04T07:28:19.728Z,99575.80
2019-04-04T07:30:56.522Z,99571.19
2019-04-04T07:33:26.193Z,99544.29
2019-04-04T07:35:55.658Z,99548.17
2019-04-04T07:41:44.676Z,99515.80
2019-04-04T07:44:17.269Z,99499.58
2019-04-04T07:46:47.677Z,99517.43
2019-04-04T07:49:18.666Z,99527.39
2019-04-04T07:51:48.314Z,99542.34
2019-04-04T07:54:17.683Z,99554.02
2019-04-04T07:56:48.848Z,99554.38
2019-04-04T07:59:18.377Z,99571.41
2019-04-04T08:04:36.435Z,99588.06
2019-04-04T08:07:05.790Z,99590.05
2019-04-04T08:09:35.738Z,99597.72
2019-04-04T08:12:05.649Z,99596.98
2019-04-04T08:14:35.314Z,99591.88
2019-04-04T08:17:04.767Z,99584.34
2019-04-04T08:19:34.153Z,99583.59
2019-04-04T08:22:03.754Z,99591.39
2019-04-04T08:24:33.076Z,99599.15
2019-04-04T08:27:02.725Z,99604.50
2019-04-04T08:32:26.901Z,99601.72
2019-04-04T08:34:56.575Z,99603.39
2019-04-04T08:37:26.021Z,99599.97
2019-04-04T08:39:55.691Z,99593.25
2019-04-04T08:42:25.293Z,99588.78
2019-04-04T08:44:54.766Z,99584.23
2019-04-04T08:47:24.429Z,99593.09
2019-04-04T08:49:53.805Z,99585.28
2019-04-04T08:52:23.167Z,99588.44
2019-04-04T08:54:52.830Z,99586.81
2019-04-04T08:57:22.482Z,99590.08
2019-04-04T08:59:51.852Z,99571.30
2019-04-04T09:02:21.578Z,99566.13
2019-04-04T09:04:51.239Z,99569.39
2019-04-04T09:07:20.688Z,99569.03
2019-04-04T09:09:50.133Z,99562.00
2019-04-04T09:12:19.579Z,99565.37
2019-04-04T09:17:44.790Z,99574.83
2019-04-04T09:20:14.543Z,99580.02
2019-04-04T09:22:43.893Z,99585.09
2019-04-04T09:25:13.322Z,99586.19
2019-04-04T09:28:02.028Z,99591.33
2019-04-04T09:30:43.502Z,99590.75
2019-04-04T09:33:12.863Z,99590.75
2019-04-04T09:35:42.227Z,99600.80
2019-04-04T09:38:25.552Z,99604.31
2019-04-04T09:40:54.928Z,99604.31
2019-04-04T09:43:24.606Z,99611.05
2019-04-04T09:46:14.905Z,99606.19
2019-04-04T09:48:44.267Z,99619.55
2019-04-04T09:51:33.002Z,99622.26
2019-04-04T09:54:02.359Z,99625.33
2019-04-04T09:56:44.184Z,99630.00
2019-04-04T09:59:13.825Z,99632.31
2019-04-04T10:01:43.191Z,99632.31
2019-04-04T10:04:13.958Z,99646.45
2019-04-04T10:06:43.634Z,99646.45
2019-04-04T10:09:33.704Z,99641.80
2019-04-04T10:12:03.358Z,99639.27
2019-04-04T10:14:32.839Z,99627.26
2019-04-04T10:17:02.216Z,99627.26
2019-04-04T10:19:31.770Z,99626.11
2019-04-04T10:22:01.133Z,99612.81
2019-04-04T10:24:42.776Z,99605.73
2019-04-04T10:27:12.120Z,99605.73
2019-04-04T10:29:41.817Z,99600.29
2019-04-04T10:32:11.486Z,99599.60
2019-04-04T10:34:41.282Z,99591.88
2019-04-04T10:37:31.287Z,99584.77
2019-04-04T10:40:00.946Z,99562.12
2019-04-04T10:42:30.353Z,99562.12
2019-04-04T10:45:19.323Z,99558.20
2019-04-04T10:48:07.864Z,99554.81
2019-04-04T10:50:37.238Z,99554.81
2019-04-04T10:53:06.842Z,99557.59
2019-04-04T10:55:55.581Z,99563.54
2019-04-04T10:58:24.927Z,99574.64
2019-04-04T11:00:54.317Z,99571.24
2019-04-04T11:03:43.579Z,99577.07
2019-04-04T11:06:13.010Z,99564.92
2019-04-04T11:08:42.383Z,99564.92
2019-04-04T11:11:11.796Z,99573.82
2019-04-04T11:13:42.879Z,99538.88
2019-04-04T11:16:30.306Z,99571.03
2019-04-04T11:18:58.248Z,99571.03
2019-04-04T11:21:27.906Z,99582.21
2019-04-04T11:23:57.594Z,99586.09
2019-04-04T11:26:27.036Z,99587.88
2019-04-04T11:28:56.399Z,99593.81
2019-04-04T11:31:25.877Z,99591.48
2019-04-04T11:33:55.532Z,99591.61
2019-04-04T11:36:37.867Z,99603.86
2019-04-04T11:42:27.398Z,99607.49
2019-04-04T11:44:57.049Z,99609.11
2019-04-04T11:50:22.040Z,99622.48
2019-04-04T11:52:51.398Z,99616.05
2019-04-04T11:55:21.309Z,99610.41
2019-04-04T11:57:50.966Z,99609.95
2019-04-04T12:03:15.471Z,99609.39
2019-04-04T12:05:45.069Z,99600.34
2019-04-04T12:08:14.422Z,99600.34
2019-04-04T12:10:44.080Z,99576.15
2019-04-04T12:13:13.450Z,99568.09
2019-04-04T12:18:45.435Z,99586.75
2019-04-04T12:21:15.460Z,99592.13
2019-04-04T12:23:45.000Z,99607.59
2019-04-04T12:26:14.399Z,99607.59
2019-04-04T12:28:45.368Z,99628.47
2019-04-04T12:31:15.022Z,99623.41
2019-04-04T12:33:44.379Z,99620.27
2019-04-04T12:36:24.049Z,99636.90
2019-04-04T12:38:50.596Z,99649.25
2019-04-04T12:42:00.203Z,99644.44
2019-04-04T12:44:49.131Z,99613.74
2019-04-04T12:47:18.827Z,99596.91
2019-04-04T12:49:50.405Z,99651.34
2019-04-04T12:52:19.774Z,99641.84
2019-04-04T12:54:49.377Z,99622.21
2019-04-04T12:57:19.046Z,99601.44
2019-04-04T13:00:01.910Z,99618.03
2019-04-04T13:02:31.274Z,99611.83
2019-04-04T13:05:01.206Z,99636.21
2019-04-04T13:07:30.574Z,99645.25
2019-04-04T13:10:10.897Z,99640.75
2019-04-04T13:15:38.316Z,99620.41
2019-04-04T13:18:09.307Z,99620.41
2019-04-04T13:20:38.648Z,99612.97
2019-04-04T13:23:08.278Z,99618.70
2019-04-04T13:25:37.943Z,99613.55
2019-04-04T13:28:07.656Z,99608.38
2019-04-04T13:30:49.521Z,99585.91
2019-04-04T13:33:31.472Z,99591.11
2019-04-04T13:36:01.419Z,99591.11
2019-04-04T13:38:30.797Z,99598.70
2019-04-04T13:41:00.490Z,99588.95
2019-04-04T13:43:29.855Z,99591.08
2019-04-04T13:45:59.507Z,99598.78
2019-04-04T13:48:29.175Z,99604.30
2019-04-04T13:51:00.902Z,99601.61
2019-04-04T13:53:30.485Z,99604.20
2019-04-04T13:56:00.198Z,99607.19
2019-04-04T13:58:29.895Z,99604.65
2019-04-04T14:00:59.550Z,99604.29
2019-04-04T14:03:29.216Z,99602.02
2019-04-04T14:05:58.565Z,99599.23
2019-04-04T14:08:27.935Z,99598.97
2019-04-04T14:10:58.611Z,99597.33
2019-04-04T14:13:28.334Z,99605.27
2019-04-04T14:15:57.776Z,99606.26
2019-04-04T14:18:38.988Z,99605.06
2019-04-04T14:21:17.557Z,99605.06
2019-04-04T14:26:46.400Z,99622.52
2019-04-04T14:29:27.811Z,99622.52
2019-04-04T14:31:58.903Z,99625.89
2019-04-04T14:34:28.351Z,99645.70
2019-04-04T14:36:57.830Z,99645.70
2019-04-04T14:39:27.361Z,99664.47
2019-04-04T14:41:56.749Z,99696.30
2019-04-04T14:44:28.028Z,99705.91
2019-04-04T14:47:07.349Z,99704.01
2019-04-04T14:49:36.711Z,99708.45
2019-04-04T14:52:06.403Z,99713.38
2019-04-04T14:54:46.706Z,99715.35
2019-04-04T14:57:35.739Z,99713.78
2019-04-04T15:03:07.689Z,99682.33
2019-04-04T15:05:37.050Z,99678.02
2019-04-04T15:08:06.966Z,99670.23
2019-04-04T15:10:38.880Z,99651.89
2019-04-04T15:13:12.765Z,99653.20
2019-04-04T15:19:16.536Z,99622.23
2019-04-04T15:21:45.898Z,99622.23
2019-04-04T15:24:15.573Z,99628.86
2019-04-04T15:26:45.183Z,99637.85
2019-04-04T15:29:14.556Z,99641.73
2019-04-04T15:31:43.913Z,99659.19
2019-04-04T15:34:13.522Z,99664.12
2019-04-04T15:36:42.878Z,99665.13
2019-04-04T15:39:12.555Z,99674.45
2019-04-04T15:41:41.909Z,99669.55
2019-04-04T15:44:11.576Z,99680.08
2019-04-04T15:46:40.937Z,99683.38
2019-04-04T15:49:10.620Z,99688.73
2019-04-04T15:51:39.976Z,99694.75
2019-04-04T15:54:09.934Z,99698.27
2019-04-04T15:56:39.582Z,99713.54
2019-04-04T15:59:08.953Z,99718.55
2019-04-04T16:01:38.638Z,99714.41
2019-04-04T16:04:08.008Z,99713.57
2019-04-04T16:06:37.674Z,99726.51
2019-04-04T16:09:47.076Z,99735.45
2019-04-04T16:12:36.033Z,99750.63
2019-04-04T16:15:45.770Z,99750.63
2019-04-04T16:18:15.120Z,99748.75
2019-04-04T16:20:44.751Z,99757.20
2019-04-04T16:23:14.097Z,99757.20
2019-04-04T16:25:43.720Z,99749.25
2019-04-04T16:28:13.083Z,99749.25
2019-04-04T16:30:42.745Z,99756.59
2019-04-04T16:33:12.103Z,99753.27
2019-04-04T16:35:54.334Z,99752.44
2019-04-04T16:38:23.749Z,99752.44
2019-04-04T16:40:53.152Z,99764.00
2019-04-04T16:43:35.664Z,99770.77
2019-04-04T16:46:05.068Z,99770.77
2019-04-04T16:48:54.127Z,99775.75
2019-04-04T16:51:23.827Z,99775.75
2019-04-04T16:53:53.202Z,99774.89
2019-04-04T16:57:02.753Z,99785.27
2019-04-04T16:59:32.127Z,99794.16
2019-04-04T17:02:02.049Z,99798.91
2019-04-04T17:04:31.762Z,99806.08
2019-04-04T17:07:01.126Z,99802.43
2019-04-04T17:09:30.780Z,99803.91
2019-04-04T17:12:00.446Z,99806.35
2019-04-04T17:14:48.991Z,99819.76
2019-04-04T17:17:18.593Z,99811.72
2019-04-04T17:19:49.147Z,99808.90
2019-04-04T17:25:33.788Z,99815.37
2019-04-04T17:28:03.295Z,99805.48
2019-04-04T17:30:33.565Z,99796.09
2019-04-04T17:33:23.293Z,99803.30
2019-04-04T17:35:53.059Z,99796.84
2019-04-04T17:38:22.700Z,99807.20
2019-04-04T17:40:52.376Z,99809.28
2019-04-04T17:43:22.083Z,99825.86
2019-04-04T17:45:51.650Z,99830.86
2019-04-04T17:48:21.019Z,99838.89
2019-04-04T17:50:50.683Z,99835.61
2019-04-04T17:53:20.283Z,99826.70
2019-04-04T17:55:51.948Z,99824.98
2019-04-04T17:58:41.437Z,99838.30
2019-04-04T18:07:35.396Z,99827.23
2019-04-04T18:13:07.032Z,99824.38
2019-04-04T18:18:17.339Z,99805.77
2019-04-04T18:20:46.970Z,99816.98
2019-04-04T18:23:16.324Z,99820.03
2019-04-04T18:25:47.405Z,99829.88
2019-04-04T18:28:38.178Z,99823.45
2019-04-04T18:31:32.359Z,99834.77
2019-04-04T18:34:02.305Z,99830.38
2019-04-04T18:36:33.660Z,99837.45
2019-04-04T18:39:23.440Z,99840.63
2019-04-04T18:41:53.101Z,99848.54
2019-04-04T18:44:43.644Z,99850.61
2019-04-04T18:47:34.080Z,99844.16
2019-04-04T18:50:44.157Z,99848.41
2019-04-04T18:53:13.813Z,99846.70
2019-04-04T18:55:43.220Z,99855.34
2019-04-04T18:58:12.572Z,99868.86
2019-04-04T19:03:37.910Z,99861.42
2019-04-04T19:06:07.281Z,99872.50
2019-04-04T19:08:36.641Z,99873.72
2019-04-04T19:11:06.439Z,99876.52
2019-04-04T19:13:44.049Z,99882.72
2019-04-04T19:16:13.471Z,99883.92
2019-04-04T19:21:57.025Z,99875.70
2019-04-04T19:24:26.372Z,99875.09
2019-04-04T19:27:07.936Z,99874.59
2019-04-04T19:29:49.041Z,99874.59
2019-04-04T19:32:18.413Z,99880.70
2019-04-04T19:34:49.407Z,99880.80
2019-04-04T19:37:19.092Z,99874.73
2019-04-04T19:39:57.305Z,99893.72
2019-04-04T19:42:26.631Z,99895.02
2019-04-04T19:44:56.282Z,99888.57
2019-04-04T19:47:25.653Z,99888.67
2019-04-04T19:49:55.370Z,99896.48
2019-04-04T19:52:25.031Z,99899.16
2019-04-04T19:54:55.024Z,99896.53
2019-04-04T19:57:24.417Z,99903.09
2019-04-04T19:59:54.053Z,99912.25
2019-04-04T20:02:23.421Z,99905.28
2019-04-04T20:04:53.096Z,99898.11
2019-04-04T20:07:22.468Z,99909.44
2019-04-04T20:09:51.815Z,99910.78
2019-04-04T20:12:21.421Z,99913.22
2019-04-04T20:14:51.091Z,99916.38
2019-04-04T20:17:20.481Z,99915.03
2019-04-04T20:19:50.133Z,99927.33
2019-04-04T20:22:19.505Z,99931.11
2019-04-04T20:24:50.773Z,99925.73
2019-04-04T20:27:20.351Z,99942.55
2019-04-04T20:29:49.706Z,99934.96
2019-04-04T20:32:32.092Z,99939.34
2019-04-04T20:35:01.739Z,99939.34
2019-04-04T20:40:25.711Z,99941.77
2019-04-04T20:43:14.746Z,99942.38
2019-04-04T20:45:44.290Z,99942.36
2019-04-04T20:48:33.030Z,99934.94
2019-04-04T20:51:02.493Z,99931.80
2019-04-04T20:53:32.168Z,99922.53
2019-04-04T20:56:01.830Z,99924.39
2019-04-04T20:58:31.740Z,99927.34
2019-04-04T21:01:01.373Z,99936.95
2019-04-04T21:03:30.876Z,99947.67
2019-04-04T21:12:07.051Z,99930.12
2019-04-04T21:14:49.349Z,99943.14
2019-04-04T21:17:19.632Z,99943.14
2019-04-04T21:20:09.089Z,99958.48
2019-04-04T21:22:38.513Z,99963.45
2019-04-04T21:25:08.282Z,99954.65
2019-04-04T21:27:37.650Z,99962.81
2019-04-04T21:33:41.440Z,99954.07
2019-04-04T21:39:12.665Z,99973.79
2019-04-04T21:41:42.016Z,99976.95
2019-04-04T21:44:23.584Z,99981.65
2019-04-04T21:46:52.952Z,99981.65
2019-04-04T21:49:22.352Z,99994.79
2019-04-04T21:51:51.735Z,100006.69
2019-04-04T21:57:30.495Z,99999.66
2019-04-04T22:00:19.569Z,100003.14
2019-04-04T22:02:50.675Z,100003.73
2019-04-04T22:05:19.994Z,100006.91
2019-04-04T22:07:49.852Z,100008.59
2019-04-04T22:10:32.088Z,99995.83
2019-04-04T22:13:13.829Z,99995.83
2019-04-04T22:16:23.480Z,100003.73
2019-04-04T22:18:53.161Z,100002.30
2019-04-04T22:21:22.824Z,100005.08
2019-04-04T22:24:11.852Z,100016.53
2019-04-04T22:26:41.499Z,100015.20
2019-04-04T22:29:11.201Z,100011.55
2019-04-04T22:31:40.921Z,100013.39
2019-04-04T22:34:10.450Z,100009.62
2019-04-04T22:39:28.492Z,100016.31
2019-04-04T22:41:57.854Z,100013.27
2019-04-04T22:44:34.610Z,100001.56
2019-04-04T22:47:17.710Z,100003.39
2019-04-04T22:49:47.399Z,100000.00
2019-04-04T22:52:16.981Z,99997.47
2019-04-04T22:54:47.414Z,100009.05
2019-04-04T22:57:16.786Z,100009.05
2019-04-04T22:59:46.168Z,100007.96
2019-04-04T23:02:17.438Z,100004.91
2019-04-04T23:04:46.819Z,100001.14
2019-04-04T23:10:24.821Z,100016.22
2019-04-04T23:12:54.199Z,100031.75
2019-04-04T23:15:24.034Z,100026.75
2019-04-04T23:17:54.079Z,100025.78
2019-04-04T23:23:11.967Z,100031.88
2019-04-04T23:26:01.011Z,100035.19
2019-04-04T23:28:43.562Z,100039.88
2019-04-04T23:31:13.194Z,100039.88
2019-04-04T23:34:02.489Z,100037.20
2019-04-04T23:36:35.210Z,100037.20
2019-04-04T23:39:14.218Z,100034.90
2019-04-04T23:41:43.714Z,100028.08
2019-04-04T23:44:13.104Z,100028.08
2019-04-04T23:47:02.292Z,100030.89
2019-04-04T23:49:31.730Z,100030.89
2019-04-04T23:52:01.401Z,100047.79
2019-04-04T23:54:30.854Z,100051.77
2019-04-04T23:57:19.586Z,100051.77
